createdAt,value
2023-01-11T00:00:39.260Z,1.12
2023-01-11T00:03:06.322Z,1.12
2023-01-11T00:05:38.121Z,1.12
2023-01-11T00:08:05.483Z,1.22
2023-01-11T00:10:33.433Z,1.27
2023-01-11T00:13:01.380Z,1.41
2023-01-11T00:15:28.180Z,1.52
2023-01-11T00:17:55.000Z,1.63
2023-01-11T00:20:21.871Z,1.73
2023-01-11T00:22:48.720Z,1.78
2023-01-11T00:25:15.608Z,1.73
2023-01-11T00:27:42.411Z,1.63
2023-01-11T00:30:09.766Z,1.57
2023-01-11T00:32:36.546Z,1.48
2023-01-11T00:35:03.493Z,1.42
2023-01-11T00:37:30.347Z,1.32
2023-01-11T00:39:57.133Z,1.18
2023-01-11T00:42:42.422Z,1.12
2023-01-11T00:45:28.105Z,1.06
2023-01-11T00:47:57.505Z,0.98
2023-01-11T00:50:25.224Z,0.91
2023-01-11T00:52:52.055Z,0.83
2023-01-11T00:55:18.938Z,0.70
2023-01-11T00:57:45.739Z,0.56
2023-01-11T01:00:13.280Z,0.51
2023-01-11T01:02:40.187Z,0.35
2023-01-11T01:05:07.364Z,0.31
2023-01-11T01:07:34.161Z,0.22
2023-01-11T01:10:00.861Z,0.18
2023-01-11T01:12:46.240Z,0.25
2023-01-11T01:15:12.993Z,0.36
2023-01-11T01:17:39.751Z,0.48
2023-01-11T01:20:07.259Z,0.56
2023-01-11T01:22:34.464Z,0.64
2023-01-11T01:25:01.202Z,0.77
2023-01-11T01:27:27.958Z,0.84
2023-01-11T01:29:54.767Z,0.90
2023-01-11T01:32:21.541Z,0.98
2023-01-11T01:34:48.399Z,1.02
2023-01-11T01:37:15.988Z,1.10
2023-01-11T01:39:44.021Z,1.19
2023-01-11T01:42:19.460Z,1.24
2023-01-11T01:44:59.375Z,1.29
2023-01-11T01:47:34.369Z,1.38
2023-01-11T01:50:04.201Z,1.45
2023-01-11T01:52:31.969Z,1.50
2023-01-11T01:54:59.826Z,1.52
2023-01-11T01:57:29.028Z,1.58
2023-01-11T01:59:56.521Z,1.65
2023-01-11T02:02:24.297Z,1.69
2023-01-11T02:04:51.228Z,1.70
2023-01-11T02:07:19.789Z,1.69
2023-01-11T02:10:05.269Z,1.72
2023-01-11T02:12:33.618Z,1.70
2023-01-11T02:15:03.502Z,1.71
2023-01-11T02:17:30.288Z,1.60
2023-01-11T02:20:05.899Z,1.62
2023-01-11T02:22:54.022Z,1.54
2023-01-11T02:25:48.602Z,1.43
2023-01-11T02:28:43.518Z,1.35
2023-01-11T02:31:35.133Z,1.30
2023-01-11T02:34:39.340Z,1.25
2023-01-11T02:37:24.720Z,1.28
2023-01-11T02:40:17.704Z,1.28
2023-01-11T02:43:02.806Z,1.29
2023-01-11T02:45:59.425Z,1.28
2023-01-11T02:48:44.146Z,1.22
2023-01-11T02:51:18.224Z,1.16
2023-01-11T02:53:49.735Z,1.11
2023-01-11T02:56:18.799Z,1.06
2023-01-11T02:58:46.202Z,0.98
2023-01-11T03:01:13.164Z,0.88
2023-01-11T03:03:40.057Z,0.80
2023-01-11T03:06:18.968Z,0.69
2023-01-11T03:08:56.045Z,0.56
2023-01-11T03:12:19.021Z,0.50
2023-01-11T03:14:51.461Z,0.44
2023-01-11T03:17:42.923Z,0.38
2023-01-11T03:20:24.541Z,0.27
2023-01-11T03:23:10.582Z,0.29
2023-01-11T03:26:03.480Z,0.27
2023-01-11T03:28:57.481Z,0.28
2023-01-11T03:31:30.894Z,0.26
2023-01-11T03:34:02.988Z,0.20
2023-01-11T03:36:45.761Z,0.11
2023-01-11T03:39:27.902Z,0.15
2023-01-11T03:41:57.400Z,0.18
2023-01-11T03:44:25.326Z,0.20
2023-01-11T03:46:57.955Z,0.22
2023-01-11T03:49:31.263Z,0.26
2023-01-11T03:51:59.225Z,0.19
2023-01-11T03:54:26.791Z,0.14
2023-01-11T03:57:16.305Z,0.13
2023-01-11T03:59:43.082Z,0.07
2023-01-11T04:02:25.280Z,-0.04
2023-01-11T04:04:52.284Z,-0.02
2023-01-11T04:07:19.131Z,-0.07
2023-01-11T04:09:46.001Z,-0.07
2023-01-11T04:12:12.869Z,-0.06
2023-01-11T04:14:39.679Z,0.02
2023-01-11T04:17:06.419Z,0.03
2023-01-11T04:19:33.203Z,0.05
2023-01-11T04:21:59.923Z,-0.01
2023-01-11T04:24:26.741Z,0.09
2023-01-11T04:26:53.522Z,-0.03
2023-01-11T04:29:20.260Z,-0.03
2023-01-11T04:31:47.026Z,-0.16
2023-01-11T04:34:13.970Z,-0.28
2023-01-11T04:36:40.923Z,-0.34
2023-01-11T04:39:10.691Z,-0.45
2023-01-11T04:41:57.001Z,-0.50
2023-01-11T04:44:23.923Z,-0.55
2023-01-11T04:46:50.813Z,-0.58
2023-01-11T04:49:17.624Z,-0.64
2023-01-11T04:51:44.415Z,-0.66
2023-01-11T04:54:11.261Z,-0.76
2023-01-11T04:56:38.119Z,-0.81
2023-01-11T04:59:04.880Z,-0.86
2023-01-11T05:01:31.767Z,-0.92
2023-01-11T05:03:58.545Z,-0.97
2023-01-11T05:06:25.991Z,-0.99
2023-01-11T05:08:52.831Z,-1.05
2023-01-11T05:11:19.726Z,-1.09
2023-01-11T05:13:46.724Z,-1.11
2023-01-11T05:16:14.436Z,-1.11
2023-01-11T05:18:54.223Z,-1.16
2023-01-11T05:21:22.761Z,-1.12
2023-01-11T05:23:49.619Z,-1.16
2023-01-11T05:26:18.774Z,-1.10
2023-01-11T05:28:46.187Z,-1.08
2023-01-11T05:31:13.260Z,-1.05
2023-01-11T05:33:40.083Z,-0.99
2023-01-11T05:36:09.231Z,-0.97
2023-01-11T05:38:36.043Z,-0.95
2023-01-11T05:41:04.459Z,-0.98
2023-01-11T05:43:31.320Z,-0.97
2023-01-11T05:45:58.382Z,-1.04
2023-01-11T05:48:25.466Z,-1.10
2023-01-11T05:50:56.021Z,-1.10
2023-01-11T05:53:23.680Z,-1.14
2023-01-11T05:55:54.660Z,-1.14
2023-01-11T05:58:22.038Z,-1.09
2023-01-11T06:00:50.117Z,-1.11
2023-01-11T06:03:17.021Z,-1.11
2023-01-11T06:05:45.956Z,-1.08
2023-01-11T06:08:13.131Z,-1.11
2023-01-11T06:10:40.007Z,-1.07
2023-01-11T06:13:25.279Z,-1.05
2023-01-11T06:15:55.604Z,-1.01
2023-01-11T06:18:22.421Z,-1.02
2023-01-11T06:20:52.608Z,-0.90
2023-01-11T06:23:19.464Z,-0.79
2023-01-11T06:25:46.309Z,-0.65
2023-01-11T06:28:13.418Z,-0.59
2023-01-11T06:30:40.427Z,-0.57
2023-01-11T06:33:07.405Z,-0.51
2023-01-11T06:35:34.761Z,-0.38
2023-01-11T06:38:01.604Z,-0.30
2023-01-11T06:40:28.959Z,-0.19
2023-01-11T06:42:55.742Z,-0.13
2023-01-11T06:45:22.647Z,-0.03
2023-01-11T06:47:49.567Z,0.09
2023-01-11T06:50:16.645Z,0.20
2023-01-11T06:52:43.545Z,0.35
2023-01-11T06:55:10.346Z,0.41
2023-01-11T06:57:37.210Z,0.53
2023-01-11T07:00:04.360Z,0.58
2023-01-11T07:02:31.485Z,0.64
2023-01-11T07:04:58.256Z,0.71
2023-01-11T07:07:25.058Z,0.75
2023-01-11T07:09:53.660Z,0.79
2023-01-11T07:12:20.862Z,0.86
2023-01-11T07:14:47.687Z,0.90
2023-01-11T07:17:14.486Z,0.99
2023-01-11T07:19:41.289Z,1.07
2023-01-11T07:22:08.500Z,1.16
2023-01-11T07:24:35.405Z,1.23
2023-01-11T07:27:03.081Z,1.35
2023-01-11T07:29:29.948Z,1.44
2023-01-11T07:31:56.722Z,1.58
2023-01-11T07:34:24.221Z,1.72
2023-01-11T07:36:51.023Z,1.78
2023-01-11T07:39:17.862Z,1.90
2023-01-11T07:42:03.240Z,2.04
2023-01-11T07:44:30.029Z,2.14
2023-01-11T07:46:57.180Z,2.32
2023-01-11T07:49:24.041Z,2.42
2023-01-11T07:51:52.281Z,2.53
2023-01-11T07:54:19.167Z,2.61
2023-01-11T07:56:46.023Z,2.77
2023-01-11T07:59:13.057Z,2.84
2023-01-11T08:01:39.881Z,2.98
2023-01-11T08:04:08.538Z,3.05
2023-01-11T08:06:35.363Z,3.10
2023-01-11T08:09:02.215Z,3.20
2023-01-11T08:11:47.902Z,3.26
2023-01-11T08:14:33.050Z,3.33
2023-01-11T08:16:59.867Z,3.34
2023-01-11T08:19:26.679Z,3.33
2023-01-11T08:21:53.500Z,3.37
2023-01-11T08:24:21.383Z,3.41
2023-01-11T08:26:48.708Z,3.39
2023-01-11T08:29:15.559Z,3.41
2023-01-11T08:31:48.802Z,3.46
2023-01-11T08:34:15.747Z,3.43
2023-01-11T08:36:42.590Z,3.47
2023-01-11T08:39:09.485Z,3.49
2023-01-11T08:41:36.338Z,3.49
2023-01-11T08:44:03.252Z,3.48
2023-01-11T08:46:30.183Z,3.52
2023-01-11T08:48:56.994Z,3.54
2023-01-11T08:51:23.804Z,3.53
2023-01-11T08:53:52.222Z,3.58
2023-01-11T08:56:19.027Z,3.64
2023-01-11T08:58:45.881Z,3.68
2023-01-11T09:01:12.742Z,3.73
2023-01-11T09:03:39.546Z,3.75
2023-01-11T09:06:06.671Z,3.81
2023-01-11T09:08:33.502Z,3.90
2023-01-11T09:11:00.318Z,3.96
2023-01-11T09:13:27.179Z,4.03
2023-01-11T09:15:57.797Z,4.09
2023-01-11T09:18:27.075Z,4.19
2023-01-11T09:20:54.784Z,4.26
2023-01-11T09:23:21.540Z,4.37
2023-01-11T09:25:48.364Z,4.41
2023-01-11T09:28:15.283Z,4.47
2023-01-11T09:30:42.179Z,4.52
2023-01-11T09:33:09.002Z,4.58
2023-01-11T09:35:37.944Z,4.59
2023-01-11T09:38:04.725Z,4.64
2023-01-11T09:41:01.807Z,4.68
2023-01-11T09:43:30.354Z,4.73
2023-01-11T09:46:00.655Z,4.78
2023-01-11T09:48:38.206Z,4.87
2023-01-11T09:51:05.243Z,4.93
2023-01-11T09:53:36.269Z,5.03
2023-01-11T09:56:05.436Z,5.22
2023-01-11T09:59:05.523Z,5.45
2023-01-11T10:01:53.646Z,5.68
2023-01-11T10:04:50.222Z,5.96
2023-01-11T10:07:43.089Z,6.17
2023-01-11T10:18:40.173Z,6.52
2023-01-11T10:19:50.228Z,6.55
2023-01-11T10:22:23.840Z,6.55
2023-01-11T10:25:00.613Z,6.50
2023-01-11T10:27:52.882Z,6.50
2023-01-11T10:30:44.662Z,6.47
2023-01-11T10:33:55.290Z,6.43
2023-01-11T10:37:01.026Z,6.45
2023-01-11T10:39:52.286Z,6.47
2023-01-11T10:42:23.545Z,6.46
2023-01-11T10:45:15.156Z,6.52
2023-01-11T10:47:48.181Z,6.47
2023-01-11T10:50:24.545Z,6.50
2023-01-11T10:53:00.200Z,6.51
2023-01-11T10:58:25.025Z,6.53
2023-01-11T11:01:08.762Z,6.53
2023-01-11T11:03:39.880Z,6.53
2023-01-11T11:06:45.184Z,6.51
2023-01-11T11:09:30.603Z,6.50
2023-01-11T11:12:13.700Z,6.49
2023-01-11T11:14:58.852Z,6.52
2023-01-11T11:17:28.127Z,6.48
2023-01-11T11:19:54.960Z,6.42
2023-01-11T11:22:21.744Z,6.40
2023-01-11T11:24:50.057Z,6.44
2023-01-11T11:27:43.479Z,6.43
2023-01-11T11:30:11.609Z,6.46
2023-01-11T11:32:39.808Z,6.45
2023-01-11T11:35:08.162Z,6.47
2023-01-11T11:37:36.303Z,6.41
2023-01-11T11:40:03.406Z,6.41
2023-01-11T11:42:30.325Z,6.43
2023-01-11T11:45:09.177Z,6.48
2023-01-11T11:47:36.849Z,6.43
2023-01-11T11:50:43.680Z,6.40
2023-01-11T11:53:35.466Z,6.38
2023-01-11T11:56:16.041Z,6.36
2023-01-11T11:58:42.841Z,6.29
2023-01-11T12:01:33.315Z,6.27
2023-01-11T12:04:05.201Z,6.22
2023-01-11T12:06:32.001Z,6.12
2023-01-11T12:09:00.465Z,6.13
2023-01-11T12:11:35.179Z,6.09
2023-01-11T12:14:27.104Z,6.05
2023-01-11T12:16:53.929Z,5.97
2023-01-11T12:19:43.151Z,5.98
2023-01-11T12:22:29.190Z,5.93
2023-01-11T12:25:14.448Z,5.91
2023-01-11T12:27:58.921Z,5.83
2023-01-11T12:30:49.621Z,5.83
2023-01-11T12:33:25.546Z,5.79
2023-01-11T12:36:13.984Z,5.79
2023-01-11T12:39:02.960Z,5.77
2023-01-11T12:41:44.777Z,5.73
2023-01-11T12:44:26.671Z,5.69
2023-01-11T12:47:18.076Z,5.67
2023-01-11T12:49:49.222Z,5.62
2023-01-11T12:52:22.345Z,5.65
2023-01-11T12:55:05.901Z,5.63
2023-01-11T12:58:11.506Z,5.56
2023-01-11T13:00:57.810Z,5.53
2023-01-11T13:04:02.184Z,5.50
2023-01-11T13:06:42.583Z,5.49
2023-01-11T13:09:38.024Z,5.45
2023-01-11T13:12:28.309Z,5.39
2023-01-11T13:15:01.305Z,5.36
2023-01-11T13:17:40.101Z,5.31
2023-01-11T13:20:34.289Z,5.29
2023-01-11T13:23:33.161Z,5.22
2023-01-11T13:26:05.846Z,5.17
2023-01-11T13:28:39.641Z,5.10
2023-01-11T13:31:08.107Z,5.08
2023-01-11T13:33:34.964Z,5.04
2023-01-11T13:36:22.747Z,5.03
2023-01-11T13:39:28.592Z,4.97
2023-01-11T13:42:00.649Z,4.95
2023-01-11T13:44:42.729Z,4.95
2023-01-11T13:47:31.842Z,4.98
2023-01-11T13:50:21.720Z,4.98
2023-01-11T13:53:25.766Z,4.95
2023-01-11T13:56:15.983Z,4.91
2023-01-11T13:58:51.501Z,4.85
2023-01-11T14:01:20.650Z,4.84
2023-01-11T14:04:15.181Z,4.77
2023-01-11T14:06:55.599Z,4.78
2023-01-11T14:09:45.139Z,4.73
2023-01-11T14:12:19.656Z,4.73
2023-01-11T14:15:28.871Z,4.74
2023-01-11T14:18:09.406Z,4.72
2023-01-11T14:20:42.209Z,4.72
2023-01-11T14:23:19.299Z,4.71
2023-01-11T14:26:12.671Z,4.70
2023-01-11T14:29:02.173Z,4.68
2023-01-11T14:31:41.141Z,4.65
2023-01-11T14:34:29.805Z,4.62
2023-01-11T14:37:04.860Z,4.57
2023-01-11T14:40:08.781Z,4.58
2023-01-11T14:42:54.149Z,4.56
2023-01-11T14:45:26.814Z,4.54
2023-01-11T14:48:03.900Z,4.51
2023-01-11T14:50:59.501Z,4.50
2023-01-11T14:53:29.321Z,4.50
2023-01-11T14:55:56.126Z,4.49
2023-01-11T14:58:27.339Z,4.47
2023-01-11T15:00:54.043Z,4.50
2023-01-11T15:03:21.281Z,4.49
2023-01-11T15:06:06.837Z,4.47
2023-01-11T15:08:43.621Z,4.44
2023-01-11T15:11:41.926Z,4.43
2023-01-11T15:14:22.480Z,4.37
2023-01-11T15:17:12.038Z,4.38
2023-01-11T15:19:40.242Z,4.39
2023-01-11T15:22:07.064Z,4.41
2023-01-11T15:24:40.878Z,4.41
2023-01-11T15:27:18.958Z,4.40
2023-01-11T15:29:46.525Z,4.41
2023-01-11T15:32:28.383Z,4.40
2023-01-11T15:35:15.419Z,4.39
2023-01-11T15:37:47.737Z,4.42
2023-01-11T15:40:20.083Z,4.40
2023-01-11T15:42:56.585Z,4.43
2023-01-11T15:46:12.743Z,4.44
2023-01-11T15:48:57.983Z,4.44
2023-01-11T15:52:03.128Z,4.39
2023-01-11T15:54:52.730Z,4.43
2023-01-11T15:57:25.402Z,4.43
2023-01-11T16:00:10.173Z,4.43
2023-01-11T16:02:58.429Z,4.43
2023-01-11T16:05:29.662Z,4.39
2023-01-11T16:08:14.102Z,4.40
2023-01-11T16:11:02.853Z,4.42
2023-01-11T16:13:48.288Z,4.43
2023-01-11T16:16:21.712Z,4.39
2023-01-11T16:18:53.387Z,4.38
2023-01-11T16:21:21.531Z,4.41
2023-01-11T16:23:48.363Z,4.40
2023-01-11T16:26:17.167Z,4.39
2023-01-11T16:28:55.069Z,4.39
2023-01-11T16:31:21.961Z,4.41
2023-01-11T16:33:49.959Z,4.40
2023-01-11T16:36:23.605Z,4.38
2023-01-11T16:38:50.402Z,4.43
2023-01-11T16:41:17.605Z,4.41
2023-01-11T16:43:59.248Z,4.39
2023-01-11T16:46:47.179Z,4.42
2023-01-11T16:49:16.837Z,4.36
2023-01-11T16:51:43.657Z,4.38
2023-01-11T16:54:17.057Z,4.36
2023-01-11T16:56:48.513Z,4.41
2023-01-11T16:59:15.234Z,4.44
2023-01-11T17:02:01.366Z,4.44
2023-01-11T17:04:33.429Z,4.40
2023-01-11T17:07:30.883Z,4.44
2023-01-11T17:10:19.123Z,4.44
2023-01-11T17:12:47.157Z,4.43
2023-01-11T17:16:00.348Z,4.44
2023-01-11T17:18:27.108Z,4.40
2023-01-11T17:20:53.932Z,4.40
2023-01-11T17:23:20.713Z,4.41
2023-01-11T17:25:47.465Z,4.43
2023-01-11T17:28:16.527Z,4.42
2023-01-11T17:30:47.632Z,4.43
2023-01-11T17:33:33.158Z,4.35
2023-01-11T17:36:00.267Z,4.39
2023-01-11T17:38:27.219Z,4.37
2023-01-11T17:40:56.679Z,4.39
2023-01-11T17:43:46.597Z,4.39
2023-01-11T17:46:22.231Z,4.44
2023-01-11T17:48:56.678Z,4.42
2023-01-11T17:51:27.536Z,4.44
2023-01-11T17:53:54.613Z,4.44
2023-01-11T17:56:38.413Z,4.42
2023-01-11T17:59:29.255Z,4.43
2023-01-11T18:02:19.682Z,4.43
2023-01-11T18:04:46.528Z,4.40
2023-01-11T18:07:18.060Z,4.40
2023-01-11T18:09:49.170Z,4.37
2023-01-11T18:12:26.654Z,4.34
2023-01-11T18:14:54.715Z,4.41
2023-01-11T18:17:47.810Z,4.39
2023-01-11T18:20:14.756Z,4.40
2023-01-11T18:23:13.663Z,4.40
2023-01-11T18:25:40.687Z,4.39
2023-01-11T18:28:27.365Z,4.40
2023-01-11T18:30:57.985Z,4.38
2023-01-11T18:33:27.048Z,4.34
2023-01-11T18:36:01.980Z,4.40
2023-01-11T18:38:33.322Z,4.37
2023-01-11T18:41:20.997Z,4.40
2023-01-11T18:43:47.813Z,4.36
2023-01-11T18:46:14.641Z,4.42
2023-01-11T18:48:41.434Z,4.37
2023-01-11T18:51:11.158Z,4.40
2023-01-11T18:53:37.952Z,4.41
2023-01-11T18:56:05.073Z,4.40
2023-01-11T18:58:31.856Z,4.40
2023-01-11T19:01:00.358Z,4.35
2023-01-11T19:03:27.137Z,4.35
2023-01-11T19:05:53.942Z,4.34
2023-01-11T19:08:20.715Z,4.27
2023-01-11T19:10:49.194Z,4.23
2023-01-11T19:13:19.228Z,4.26
2023-01-11T19:15:46.360Z,4.24
2023-01-11T19:18:13.258Z,4.19
2023-01-11T19:20:41.049Z,4.19
2023-01-11T19:23:07.871Z,4.12
2023-01-11T19:25:34.717Z,4.13
2023-01-11T19:28:05.248Z,4.13
2023-01-11T19:30:32.155Z,4.11
2023-01-11T19:32:58.984Z,4.06
2023-01-11T19:35:25.793Z,4.09
2023-01-11T19:37:52.973Z,4.06
2023-01-11T19:40:21.396Z,4.03
2023-01-11T19:42:48.471Z,4.06
2023-01-11T19:45:15.427Z,4.01
2023-01-11T19:47:42.364Z,4.01
2023-01-11T19:50:09.795Z,4.01
2023-01-11T19:52:36.540Z,3.98
2023-01-11T19:55:03.477Z,3.97
2023-01-11T19:57:30.479Z,3.96
2023-01-11T19:59:57.236Z,3.97
2023-01-11T20:02:24.610Z,3.94
2023-01-11T20:04:51.463Z,3.92
2023-01-11T20:07:18.283Z,3.95
2023-01-11T20:09:45.087Z,3.92
2023-01-11T20:12:12.732Z,3.93
2023-01-11T20:14:40.831Z,3.91
2023-01-11T20:17:08.080Z,3.88
2023-01-11T20:19:34.844Z,3.90
2023-01-11T20:22:01.701Z,3.83
2023-01-11T20:24:30.104Z,3.82
2023-01-11T20:26:58.123Z,3.82
2023-01-11T20:29:24.999Z,3.84
2023-01-11T20:31:51.811Z,3.80
2023-01-11T20:34:18.681Z,3.82
2023-01-11T20:36:45.636Z,3.81
2023-01-11T20:39:12.705Z,3.81
2023-01-11T20:41:52.088Z,3.79
2023-01-11T20:44:27.393Z,3.78
2023-01-11T20:46:57.839Z,3.84
2023-01-11T20:49:26.255Z,3.74
2023-01-11T20:51:53.060Z,3.78
2023-01-11T20:54:19.945Z,3.82
2023-01-11T20:56:47.097Z,3.79
2023-01-11T20:59:16.554Z,3.80
2023-01-11T21:01:43.475Z,3.79
2023-01-11T21:04:10.709Z,3.76
2023-01-11T21:06:39.171Z,3.77
2023-01-11T21:09:06.453Z,3.81
2023-01-11T21:11:33.359Z,3.79
2023-01-11T21:14:00.847Z,3.76
2023-01-11T21:16:28.447Z,3.73
2023-01-11T21:18:56.978Z,3.75
2023-01-11T21:21:23.953Z,3.74
2023-01-11T21:23:54.155Z,3.81
2023-01-11T21:26:21.335Z,3.78
2023-01-11T21:28:53.112Z,3.79
2023-01-11T21:31:21.381Z,3.77
2023-01-11T21:33:49.691Z,3.78
2023-01-11T21:36:18.448Z,3.81
2023-01-11T21:38:45.316Z,3.73
2023-01-11T21:41:16.908Z,3.74
2023-01-11T21:43:45.033Z,3.75
2023-01-11T21:46:12.648Z,3.77
2023-01-11T21:48:39.509Z,3.76
2023-01-11T21:51:10.065Z,3.79
2023-01-11T21:53:37.013Z,3.79
2023-01-11T21:56:07.776Z,3.80
2023-01-11T21:58:35.173Z,3.81
2023-01-11T22:01:11.934Z,3.80
2023-01-11T22:03:39.444Z,3.76
2023-01-11T22:06:06.555Z,3.78
2023-01-11T22:08:37.147Z,3.77
2023-01-11T22:11:04.903Z,3.74
2023-01-11T22:13:32.613Z,3.78
2023-01-11T22:16:03.674Z,3.77
2023-01-11T22:18:30.624Z,3.76
2023-01-11T22:20:57.587Z,3.79
2023-01-11T22:23:24.446Z,3.77
2023-01-11T22:25:51.705Z,3.74
2023-01-11T22:28:18.548Z,3.73
2023-01-11T22:30:45.349Z,3.77
2023-01-11T22:33:12.136Z,3.75
2023-01-11T22:35:39.414Z,3.79
2023-01-11T22:38:06.213Z,3.77
2023-01-11T22:40:33.034Z,3.79
2023-01-11T22:42:59.812Z,3.81
2023-01-11T22:45:26.701Z,3.80
2023-01-11T22:47:53.595Z,3.85
2023-01-11T22:50:20.430Z,3.77
2023-01-11T22:52:47.227Z,3.86
2023-01-11T22:55:14.174Z,3.84
2023-01-11T22:57:40.965Z,3.86
2023-01-11T23:00:08.610Z,3.85
2023-01-11T23:02:35.399Z,3.85
2023-01-11T23:05:02.271Z,3.79
2023-01-11T23:07:29.085Z,3.85
2023-01-11T23:09:55.927Z,3.82
2023-01-11T23:12:41.065Z,3.88
2023-01-11T23:15:08.475Z,3.91
2023-01-11T23:17:35.268Z,3.84
2023-01-11T23:20:02.104Z,3.85
2023-01-11T23:22:28.966Z,3.81
2023-01-11T23:24:55.747Z,3.82
2023-01-11T23:27:22.571Z,3.83
2023-01-11T23:29:49.452Z,3.85
2023-01-11T23:32:16.245Z,3.85
2023-01-11T23:34:43.026Z,3.83
2023-01-11T23:37:09.959Z,3.89
2023-01-11T23:39:36.767Z,3.89
2023-01-11T23:42:21.686Z,3.85
2023-01-11T23:44:48.576Z,3.94
2023-01-11T23:47:21.261Z,3.87
2023-01-11T23:49:49.706Z,3.92
2023-01-11T23:52:20.571Z,3.86
2023-01-11T23:54:47.597Z,3.86
2023-01-11T23:57:14.631Z,3.88
2023-01-11T23:59:41.863Z,3.90
